Terminal Aerodrome Forecast
Issued by NWS Cleveland, OH

Home | Current Version | Previous Version | Graphics & Text | Print | Product List | Glossary Off
Versions: 1 2 3 4 5 6 7 8 9 10 11 12 13 14 15 16 17 18 19 20 21 22

000
FTUS41 KCLE 160900 AAA
TAFERI
TAF AMD
KERI 160917Z 1609/1706 17003KT P6SM OVC035
      TEMPO 1609/1613 5SM BR OVC025
     FM161400 35004KT P6SM OVC012
     FM161600 35008KT P6SM SCT035
     FM170100 28004KT P6SM SKC=

USA.gov is the U.S. government's official web portal to all federal, state and local government web resources and services.